Pular para o conteúdo principal

EMBRAER ERJ-170 SAI DA PISTA NA LÍBIA


Um Embraer ERJ-170 da Petro Air,  registro 5A-SOCrealizando um voo de teste no Aeroporto de Mitiga, Trípoli (Líbia) com 2 tripulantes, saiu no final da pista 29, sem causar ferimentos na tripulação e sem graves danos na aeronave.

O fotógrafo OmarAmer AlBarghathi twittou às 14:38 Z, que o incidente aconteceu momentos atrás.

Os dados de radar mostram um voo curto de teste, com decolagem às 09:02 Z, a aeronave subiu para 7.000 pés por alguns instantes, em seguida, voltou para Mitiga para uma aterragem às 09:14 Z. 
A aeronave não apresentou sinal novamente no radar.

Não está claro, portanto, se a aeronave invadiu a pista durante uma decolagem rejeitada ou ao aterrar às 09:14 Z.

Petro Air é uma companhia aérea baseada em Tripoli e opera três Embraer ERJ-170 desde 2010, dois Dash 8-300s e 6 Twin Otter, principalmente para as companhias de petróleo.

fonte/AvHerald/foto/ OmarAmer AlBarghathi

Metar

HLLM 061650Z VRB01KT 6000 SHRA SCT020 BKN040 15/11 Q1021=
HLLM 061550Z 27003KT 6000 SCT020 BKN040 16/12 Q1021=
HLLM 061450Z 31005KT 280V340 6000 SCT020 BKN040 16/11 Q1021=
HLLM 061350Z 25008KT 6000 SCT020 BKN040 16/13 Q1020=
HLLM 061250Z 25006KT 6000 SCT020 BKN040 17/13 Q1020=
HLLM 061150Z 24007KT 6000 SCT020 BKN040 16/13 Q1021=
HLLM 061050Z 25007KT 6000 SCT020 BKN040 15/13 Q1022=
HLLM 060950Z 25006KT 6000 SCT020 BKN040 15/13 Q1022=
HLLM 060850Z 21006KT 6000 SCT020 BKN040 14/13 Q1022=
HLLM 060750Z 20003KT 6000 -SHRA SCT020 BKN040 13/12 Q1022=
 

Enhanced by Zemanta

Comentários

Postagens mais visitadas deste blog

AVIÃO COM O SENADOR AÉCIO NEVES FAZ POUSO DE EMERGÊNCIA NO AEROPORTO DE GUARULHOS

Imagem com a aeronave em que estaria Aécio, fora da pista, e que circula na internet
O avião em que estava o senador Aécio Neves (PSDB) precisou fazer um pouso de emergência no aeroporto internacional de Guarulhos na noite de quinta-feira (9), informou sua assessoria de imprensa.
Já era noite quando a aeronave, um táxi aéreo fretado pelo PSDB, saiu de Brasília com destino a São Paulo. Os pilotos, percebendo que um pedaço do pneu havia ficado na pista, teriam solicitado autorização para pousar em Cumbica, ao invés de Congonhas, por ter uma pista maior. Ao aterrissar, no entanto, o trem de pouso teria se quebrado, vindo o avião a sair da pista.
Apenas Aécio e a tripulação estavam a bordo. Segundo a assessoria, nem ele nem os pilotos se feriram.
O senador veio para São Paulo porque tem reunião agendada com o ex-presidente Fernando Henrique Cardoso na manhã desta sexta (10). Apesar do incidente, o encontro foi mantido.
Fernanda Carvalho/O Tempo/Estadão Conteúdo
fonte/foto/UOL

Da…

VÍDEOS DO ACIDENTE COM BOEING 737 DA PERUVIAN AIRLINES EM JAUJA